sensor_id;sensor_type;location;lat;lon;timestamp;pressure;altitude;pressure_sealevel;temperature;humidity
58973;BME280;44750;52.040;7.472;2023-02-12T00:01:52;102651.97;;;8.43;10.59
58973;BME280;44750;52.040;7.472;2023-02-12T00:06:53;102659.97;;;8.44;9.93
58973;BME280;44750;52.040;7.472;2023-02-12T00:11:53;102661.09;;;8.40;9.91
58973;BME280;44750;52.040;7.472;2023-02-12T00:16:53;102671.91;;;8.40;9.14
58973;BME280;44750;52.040;7.472;2023-02-12T00:21:53;102658.94;;;8.31;9.30
58973;BME280;44750;52.040;7.472;2023-02-12T00:26:53;102661.91;;;8.26;9.15
58973;BME280;44750;52.040;7.472;2023-02-12T00:31:54;102692.34;;;8.44;7.76
58973;BME280;44750;52.040;7.472;2023-02-12T00:36:54;102688.28;;;8.37;8.46
58973;BME280;44750;52.040;7.472;2023-02-12T00:41:54;102678.09;;;8.26;8.61
58973;BME280;44750;52.040;7.472;2023-02-12T00:46:54;102699.22;;;8.34;7.54
58973;BME280;44750;52.040;7.472;2023-02-12T00:51:55;102697.69;;;8.30;7.33
58973;BME280;44750;52.040;7.472;2023-02-12T00:56:56;102705.69;;;8.31;7.37
58973;BME280;44750;52.040;7.472;2023-02-12T01:01:56;102709.59;;;8.26;7.18
58973;BME280;44750;52.040;7.472;2023-02-12T01:06:56;102718.50;;;8.28;6.41
58973;BME280;44750;52.040;7.472;2023-02-12T01:11:56;102724.66;;;8.30;6.34
58973;BME280;44750;52.040;7.472;2023-02-12T01:16:57;102723.91;;;8.28;6.25
58973;BME280;44750;52.040;7.472;2023-02-12T01:21:57;102734.59;;;8.29;5.92
58973;BME280;44750;52.040;7.472;2023-02-12T01:26:57;102726.75;;;8.25;5.96
58973;BME280;44750;52.040;7.472;2023-02-12T01:31:57;102737.38;;;8.28;5.68
58973;BME280;44750;52.040;7.472;2023-02-12T01:36:58;102728.69;;;8.23;5.94
58973;BME280;44750;52.040;7.472;2023-02-12T01:41:58;102718.03;;;8.19;6.24
58973;BME280;44750;52.040;7.472;2023-02-12T01:47:00;102734.75;;;8.26;6.13
58973;BME280;44750;52.040;7.472;2023-02-12T01:52:19;102710.13;;;8.16;6.48
58973;BME280;44750;52.040;7.472;2023-02-12T01:57:20;102721.53;;;8.22;6.27
58973;BME280;44750;52.040;7.472;2023-02-12T02:02:21;102704.13;;;8.11;7.02
58973;BME280;44750;52.040;7.472;2023-02-12T02:07:21;102701.88;;;8.03;6.54
58973;BME280;44750;52.040;7.472;2023-02-12T02:12:23;102717.53;;;8.13;5.76
58973;BME280;44750;52.040;7.472;2023-02-12T02:22:46;102715.44;;;8.18;5.54
58973;BME280;44750;52.040;7.472;2023-02-12T02:33:21;102699.53;;;8.13;6.13
58973;BME280;44750;52.040;7.472;2023-02-12T02:38:33;102697.00;;;8.10;6.43
58973;BME280;44750;52.040;7.472;2023-02-12T02:43:51;102691.78;;;8.07;6.38
58973;BME280;44750;52.040;7.472;2023-02-12T02:48:55;102683.09;;;8.02;6.51
58973;BME280;44750;52.040;7.472;2023-02-12T02:54:44;102684.47;;;8.09;6.42
58973;BME280;44750;52.040;7.472;2023-02-12T02:59:30;102697.00;;;8.10;6.56
58973;BME280;44750;52.040;7.472;2023-02-12T03:04:36;102701.44;;;8.11;6.80
58973;BME280;44750;52.040;7.472;2023-02-12T03:09:46;102688.22;;;8.07;6.84
58973;BME280;44750;52.040;7.472;2023-02-12T03:14:53;102677.88;;;7.99;7.28
58973;BME280;44750;52.040;7.472;2023-02-12T03:20:07;102700.81;;;8.06;7.17
58973;BME280;44750;52.040;7.472;2023-02-12T03:25:15;102695.44;;;8.06;7.22
58973;BME280;44750;52.040;7.472;2023-02-12T03:30:17;102700.81;;;8.06;6.97
58973;BME280;44750;52.040;7.472;2023-02-12T03:35:24;102688.47;;;8.02;7.80
58973;BME280;44750;52.040;7.472;2023-02-12T03:40:34;102703.53;;;8.06;7.51
58973;BME280;44750;52.040;7.472;2023-02-12T03:45:58;102702.56;;;8.07;7.87
58973;BME280;44750;52.040;7.472;2023-02-12T03:51:13;102695.91;;;7.98;7.54
58973;BME280;44750;52.040;7.472;2023-02-12T03:56:24;102713.38;;;8.07;8.11
58973;BME280;44750;52.040;7.472;2023-02-12T04:01:26;102704.50;;;8.05;8.47
58973;BME280;44750;52.040;7.472;2023-02-12T04:06:27;102714.22;;;8.08;8.81
58973;BME280;44750;52.040;7.472;2023-02-12T04:11:38;102708.31;;;8.01;8.66
58973;BME280;44750;52.040;7.472;2023-02-12T04:16:47;102710.94;;;8.02;9.00
58973;BME280;44750;52.040;7.472;2023-02-12T04:22:10;102711.09;;;7.99;9.09
58973;BME280;44750;52.040;7.472;2023-02-12T04:37:54;102718.31;;;7.99;8.60
58973;BME280;44750;52.040;7.472;2023-02-12T04:42:56;102720.22;;;7.97;8.61
58973;BME280;44750;52.040;7.472;2023-02-12T04:47:56;102722.16;;;7.95;8.75
58973;BME280;44750;52.040;7.472;2023-02-12T04:52:57;102714.25;;;7.92;8.98
58973;BME280;44750;52.040;7.472;2023-02-12T04:57:57;102738.34;;;7.95;8.62
58973;BME280;44750;52.040;7.472;2023-02-12T05:02:57;102732.94;;;7.95;8.84
58973;BME280;44750;52.040;7.472;2023-02-12T05:07:57;102725.03;;;7.92;8.77
58973;BME280;44750;52.040;7.472;2023-02-12T05:12:58;102734.06;;;7.91;8.85
58973;BME280;44750;52.040;7.472;2023-02-12T05:17:58;102738.53;;;7.92;9.02
58973;BME280;44750;52.040;7.472;2023-02-12T05:22:58;102737.72;;;7.90;8.35
58973;BME280;44750;52.040;7.472;2023-02-12T05:27:58;102734.41;;;7.84;8.25
58973;BME280;44750;52.040;7.472;2023-02-12T05:32:58;102749.22;;;7.93;8.59
58973;BME280;44750;52.040;7.472;2023-02-12T05:37:59;102729.88;;;7.85;9.23
58973;BME280;44750;52.040;7.472;2023-02-12T05:42:59;102742.59;;;7.83;9.01
58973;BME280;44750;52.040;7.472;2023-02-12T05:47:59;102711.44;;;7.61;9.04
58973;BME280;44750;52.040;7.472;2023-02-12T05:53:00;102739.44;;;7.75;8.32
58973;BME280;44750;52.040;7.472;2023-02-12T05:58:00;102736.75;;;7.75;8.40
58973;BME280;44750;52.040;7.472;2023-02-12T06:03:00;102759.72;;;7.82;7.83
58973;BME280;44750;52.040;7.472;2023-02-12T06:08:00;102747.34;;;7.78;8.04
58973;BME280;44750;52.040;7.472;2023-02-12T06:13:00;102760.50;;;7.84;7.36
58973;BME280;44750;52.040;7.472;2023-02-12T06:18:01;102769.28;;;7.87;7.03
58973;BME280;44750;52.040;7.472;2023-02-12T06:23:01;102753.69;;;7.77;7.70
58973;BME280;44750;52.040;7.472;2023-02-12T06:28:01;102738.75;;;7.71;7.75
58973;BME280;44750;52.040;7.472;2023-02-12T06:33:01;102754.91;;;7.71;7.84
58973;BME280;44750;52.040;7.472;2023-02-12T06:38:02;102769.88;;;7.77;7.12
58973;BME280;44750;52.040;7.472;2023-02-12T06:43:03;102766.66;;;7.70;7.39
58973;BME280;44750;52.040;7.472;2023-02-12T06:48:03;102787.34;;;7.69;6.80
58973;BME280;44750;52.040;7.472;2023-02-12T06:53:03;102782.19;;;7.65;6.30
58973;BME280;44750;52.040;7.472;2023-02-12T06:58:04;102800.13;;;7.66;5.50
58973;BME280;44750;52.040;7.472;2023-02-12T07:03:04;102808.03;;;7.69;5.99
58973;BME280;44750;52.040;7.472;2023-02-12T07:08:04;102812.66;;;7.67;5.24
58973;BME280;44750;52.040;7.472;2023-02-12T07:13:04;102829.53;;;7.70;4.96
58973;BME280;44750;52.040;7.472;2023-02-12T07:18:04;102832.28;;;7.69;4.90
58973;BME280;44750;52.040;7.472;2023-02-12T07:23:05;102840.38;;;7.69;4.38
58973;BME280;44750;52.040;7.472;2023-02-12T07:28:05;102844.81;;;7.70;4.27
58973;BME280;44750;52.040;7.472;2023-02-12T07:33:05;102859.88;;;7.74;3.83
58973;BME280;44750;52.040;7.472;2023-02-12T07:38:05;102882.78;;;7.83;2.84
58973;BME280;44750;52.040;7.472;2023-02-12T07:43:05;102874.25;;;7.75;3.18
58973;BME280;44750;52.040;7.472;2023-02-12T07:48:06;102895.25;;;7.85;2.31
58973;BME280;44750;52.040;7.472;2023-02-12T07:53:06;102884.94;;;7.76;2.63
58973;BME280;44750;52.040;7.472;2023-02-12T07:58:06;102898.97;;;7.83;2.54
58973;BME280;44750;52.040;7.472;2023-02-12T08:03:06;102908.72;;;7.85;2.10
58973;BME280;44750;52.040;7.472;2023-02-12T08:08:06;102921.09;;;7.90;1.99
58973;BME280;44750;52.040;7.472;2023-02-12T08:13:07;102925.44;;;7.92;1.36
58973;BME280;44750;52.040;7.472;2023-02-12T08:18:07;102930.69;;;7.95;1.21
58973;BME280;44750;52.040;7.472;2023-02-12T08:23:07;102942.56;;;8.09;0.92
58973;BME280;44750;52.040;7.472;2023-02-12T08:28:07;102940.66;;;8.11;1.50
58973;BME280;44750;52.040;7.472;2023-02-12T08:33:08;102953.13;;;8.13;1.99
58973;BME280;44750;52.040;7.472;2023-02-12T08:38:08;102949.38;;;8.16;2.56
58973;BME280;44750;52.040;7.472;2023-02-12T08:43:08;102958.78;;;8.25;2.87
58973;BME280;44750;52.040;7.472;2023-02-12T08:48:08;102954.28;;;8.25;4.03
58973;BME280;44750;52.040;7.472;2023-02-12T08:53:08;102961.44;;;8.42;4.29
58973;BME280;44750;52.040;7.472;2023-02-12T08:58:09;102976.50;;;8.64;5.13
58973;BME280;44750;52.040;7.472;2023-02-12T09:03:09;102952.13;;;8.65;6.75
58973;BME280;44750;52.040;7.472;2023-02-12T09:08:09;102938.34;;;8.70;8.63
58973;BME280;44750;52.040;7.472;2023-02-12T09:13:10;102941.34;;;8.81;9.66
58973;BME280;44750;52.040;7.472;2023-02-12T09:18:12;102942.47;;;8.93;11.35
58973;BME280;44750;52.040;7.472;2023-02-12T09:23:13;102884.72;;;8.80;14.38
58973;BME280;44750;52.040;7.472;2023-02-12T09:28:13;102878.78;;;8.89;17.13
58973;BME280;44750;52.040;7.472;2023-02-12T09:33:14;102840.28;;;8.85;20.85
58973;BME280;44750;52.040;7.472;2023-02-12T09:38:14;102834.13;;;8.98;23.52
58973;BME280;44750;52.040;7.472;2023-02-12T09:53:30;102777.50;;;9.27;33.92
58973;BME280;44750;52.040;7.472;2023-02-12T09:58:41;102749.50;;;9.42;38.24
58973;BME280;44750;52.040;7.472;2023-02-12T10:03:44;102715.63;;;9.36;44.05
58973;BME280;44750;52.040;7.472;2023-02-12T10:14:09;102662.03;;;9.58;52.51
58973;BME280;44750;52.040;7.472;2023-02-12T10:29:40;102581.75;;;9.73;65.53
58973;BME280;44750;52.040;7.472;2023-02-12T10:34:41;102535.63;;;9.61;68.98
58973;BME280;44750;52.040;7.472;2023-02-12T10:39:47;102538.31;;;9.88;70.71
58973;BME280;44750;52.040;7.472;2023-02-12T10:44:49;102520.38;;;10.00;73.99
58973;BME280;44750;52.040;7.472;2023-02-12T10:50:00;102478.16;;;9.98;78.51
58973;BME280;44750;52.040;7.472;2023-02-12T10:55:00;102449.59;;;9.94;82.40
58973;BME280;44750;52.040;7.472;2023-02-12T11:00:34;102451.00;;;9.99;85.22
58973;BME280;44750;52.040;7.472;2023-02-12T11:05:37;102454.81;;;10.10;86.68
58973;BME280;44750;52.040;7.472;2023-02-12T11:10:39;102439.66;;;10.20;88.74
58973;BME280;44750;52.040;7.472;2023-02-12T11:15:47;102453.31;;;10.18;90.91
58973;BME280;44750;52.040;7.472;2023-02-12T11:20:50;102462.59;;;10.27;93.13
58973;BME280;44750;52.040;7.472;2023-02-12T11:25:59;102424.72;;;10.14;95.61
58973;BME280;44750;52.040;7.472;2023-02-12T11:36:22;102432.97;;;10.39;97.57
58973;BME280;44750;52.040;7.472;2023-02-12T11:46:31;102404.34;;;10.47;100.00
58973;BME280;44750;52.040;7.472;2023-02-12T11:51:32;102398.50;;;10.66;100.00
58973;BME280;44750;52.040;7.472;2023-02-12T11:56:40;102389.84;;;10.61;100.00
58973;BME280;44750;52.040;7.472;2023-02-12T12:01:41;102392.34;;;10.88;100.00
58973;BME280;44750;52.040;7.472;2023-02-12T12:07:05;102360.34;;;10.69;100.00
58973;BME280;44750;52.040;7.472;2023-02-12T12:12:15;102374.06;;;11.03;100.00
58973;BME280;44750;52.040;7.472;2023-02-12T12:17:17;102328.88;;;10.80;100.00
58973;BME280;44750;52.040;7.472;2023-02-12T12:27:54;102311.06;;;10.88;100.00
58973;BME280;44750;52.040;7.472;2023-02-12T12:32:59;102310.47;;;10.96;100.00
58973;BME280;44750;52.040;7.472;2023-02-12T12:38:15;102311.78;;;11.15;100.00
58973;BME280;44750;52.040;7.472;2023-02-12T12:43:32;102286.88;;;11.10;100.00
58973;BME280;44750;52.040;7.472;2023-02-12T12:48:51;102303.28;;;11.19;100.00
58973;BME280;44750;52.040;7.472;2023-02-12T13:04:52;102295.50;;;11.50;100.00
58973;BME280;44750;52.040;7.472;2023-02-12T13:30:45;102285.34;;;11.30;100.00
58973;BME280;44750;52.040;7.472;2023-02-12T13:35:51;102314.19;;;11.42;100.00
58973;BME280;44750;52.040;7.472;2023-02-12T13:40:57;102310.53;;;11.43;100.00
58973;BME280;44750;52.040;7.472;2023-02-12T14:01:40;102345.50;;;11.35;100.00
58973;BME280;44750;52.040;7.472;2023-02-12T14:06:57;102327.28;;;11.13;100.00
58973;BME280;44750;52.040;7.472;2023-02-12T14:11:58;102341.72;;;11.13;100.00
58973;BME280;44750;52.040;7.472;2023-02-12T14:27:35;102348.41;;;10.96;100.00
58973;BME280;44750;52.040;7.472;2023-02-12T14:32:56;102319.75;;;10.81;100.00
58973;BME280;44750;52.040;7.472;2023-02-12T14:43:25;102359.38;;;10.95;100.00
58973;BME280;44750;52.040;7.472;2023-02-12T14:48:39;102358.16;;;10.99;100.00
58973;BME280;44750;52.040;7.472;2023-02-12T14:53:45;102349.69;;;10.79;100.00
58973;BME280;44750;52.040;7.472;2023-02-12T14:58:49;102331.28;;;10.71;100.00
58973;BME280;44750;52.040;7.472;2023-02-12T15:03:54;102359.78;;;10.77;100.00
58973;BME280;44750;52.040;7.472;2023-02-12T15:09:01;102323.38;;;10.44;100.00
58973;BME280;44750;52.040;7.472;2023-02-12T15:14:14;102380.16;;;10.70;100.00
58973;BME280;44750;52.040;7.472;2023-02-12T15:24:28;102373.47;;;10.63;100.00
58973;BME280;44750;52.040;7.472;2023-02-12T15:29:49;102390.25;;;10.68;100.00
58973;BME280;44750;52.040;7.472;2023-02-12T15:34:51;102388.75;;;10.64;100.00
58973;BME280;44750;52.040;7.472;2023-02-12T15:39:55;102355.44;;;10.37;100.00
58973;BME280;44750;52.040;7.472;2023-02-12T15:45:26;102372.34;;;10.41;100.00
58973;BME280;44750;52.040;7.472;2023-02-12T15:50:28;102408.69;;;10.50;100.00
58973;BME280;44750;52.040;7.472;2023-02-12T15:55:35;102383.47;;;10.36;100.00
58973;BME280;44750;52.040;7.472;2023-02-12T16:00:44;102403.38;;;10.48;100.00
58973;BME280;44750;52.040;7.472;2023-02-12T16:05:45;102406.41;;;10.57;100.00
58973;BME280;44750;52.040;7.472;2023-02-12T16:10:47;102379.13;;;10.34;100.00
58973;BME280;44750;52.040;7.472;2023-02-12T16:16:07;102397.44;;;10.43;100.00
58973;BME280;44750;52.040;7.472;2023-02-12T16:21:18;102361.84;;;10.24;100.00
58973;BME280;44750;52.040;7.472;2023-02-12T16:26:24;102390.41;;;10.28;100.00
58973;BME280;44750;52.040;7.472;2023-02-12T16:31:26;102384.22;;;10.26;100.00
58973;BME280;44750;52.040;7.472;2023-02-12T16:36:29;102389.88;;;10.23;100.00
58973;BME280;44750;52.040;7.472;2023-02-12T16:46:43;102388.34;;;10.18;100.00
58973;BME280;44750;52.040;7.472;2023-02-12T16:51:45;102401.00;;;10.18;100.00
58973;BME280;44750;52.040;7.472;2023-02-12T16:56:45;102405.69;;;10.16;100.00
58973;BME280;44750;52.040;7.472;2023-02-12T17:02:03;102412.38;;;10.10;100.00
58973;BME280;44750;52.040;7.472;2023-02-12T17:07:21;102418.00;;;10.07;100.00
58973;BME280;44750;52.040;7.472;2023-02-12T17:12:22;102418.00;;;10.07;100.00
58973;BME280;44750;52.040;7.472;2023-02-12T17:17:22;102414.13;;;9.98;100.00
58973;BME280;44750;52.040;7.472;2023-02-12T17:22:24;102430.34;;;9.98;100.00
58973;BME280;44750;52.040;7.472;2023-02-12T17:27:25;102452.50;;;10.03;100.00
58973;BME280;44750;52.040;7.472;2023-02-12T17:32:26;102461.28;;;10.07;100.00
58973;BME280;44750;52.040;7.472;2023-02-12T17:37:26;102478.63;;;10.17;100.00
58973;BME280;44750;52.040;7.472;2023-02-12T17:42:26;102482.63;;;10.12;100.00
58973;BME280;44750;52.040;7.472;2023-02-12T17:47:26;102481.97;;;10.08;100.00
58973;BME280;44750;52.040;7.472;2023-02-12T17:52:27;102479.91;;;9.99;100.00
58973;BME280;44750;52.040;7.472;2023-02-12T17:57:27;102486.84;;;10.03;100.00
58973;BME280;44750;52.040;7.472;2023-02-12T18:02:27;102498.44;;;10.05;100.00
58973;BME280;44750;52.040;7.472;2023-02-12T18:07:28;102503.63;;;10.08;100.00
58973;BME280;44750;52.040;7.472;2023-02-12T18:12:30;102510.00;;;10.07;100.00
58973;BME280;44750;52.040;7.472;2023-02-12T18:17:31;102495.91;;;10.02;100.00
58973;BME280;44750;52.040;7.472;2023-02-12T18:22:32;102508.38;;;10.04;100.00
58973;BME280;44750;52.040;7.472;2023-02-12T18:27:32;102501.75;;;9.96;100.00
58973;BME280;44750;52.040;7.472;2023-02-12T18:32:33;102502.50;;;9.98;100.00
58973;BME280;44750;52.040;7.472;2023-02-12T18:37:34;102501.84;;;9.94;100.00
58973;BME280;44750;52.040;7.472;2023-02-12T18:42:34;102509.78;;;9.97;100.00
58973;BME280;44750;52.040;7.472;2023-02-12T18:47:34;102503.91;;;9.91;100.00
58973;BME280;44750;52.040;7.472;2023-02-12T18:52:34;102510.28;;;9.90;100.00
58973;BME280;44750;52.040;7.472;2023-02-12T18:57:35;102520.69;;;9.96;100.00
58973;BME280;44750;52.040;7.472;2023-02-12T19:02:35;102502.84;;;9.93;100.00
58973;BME280;44750;52.040;7.472;2023-02-12T19:07:35;102500.09;;;9.80;100.00
58973;BME280;44750;52.040;7.472;2023-02-12T19:12:35;102495.41;;;9.69;100.00
58973;BME280;44750;52.040;7.472;2023-02-12T19:17:35;102527.69;;;9.85;100.00
58973;BME280;44750;52.040;7.472;2023-02-12T19:22:36;102533.84;;;9.87;100.00
58973;BME280;44750;52.040;7.472;2023-02-12T19:27:36;102535.59;;;9.88;100.00
58973;BME280;44750;52.040;7.472;2023-02-12T19:32:36;102529.63;;;9.83;100.00
58973;BME280;44750;52.040;7.472;2023-02-12T19:37:36;102528.78;;;9.83;100.00
58973;BME280;44750;52.040;7.472;2023-02-12T19:42:37;102518.69;;;9.72;100.00
58973;BME280;44750;52.040;7.472;2023-02-12T19:47:37;102516.19;;;9.69;100.00
58973;BME280;44750;52.040;7.472;2023-02-12T19:52:37;102521.59;;;9.69;100.00
58973;BME280;44750;52.040;7.472;2023-02-12T19:57:37;102518.22;;;9.65;100.00
58973;BME280;44750;52.040;7.472;2023-02-12T20:02:38;102525.06;;;9.71;100.00
58973;BME280;44750;52.040;7.472;2023-02-12T20:07:38;102522.47;;;9.69;100.00
58973;BME280;44750;52.040;7.472;2023-02-12T20:12:38;102522.47;;;9.69;100.00
58973;BME280;44750;52.040;7.472;2023-02-12T20:17:38;102524.19;;;9.70;100.00
58973;BME280;44750;52.040;7.472;2023-02-12T20:22:38;102523.31;;;9.70;100.00
58973;BME280;44750;52.040;7.472;2023-02-12T20:27:39;102523.03;;;9.75;100.00
58973;BME280;44750;52.040;7.472;2023-02-12T20:32:39;102511.75;;;9.68;100.00
58973;BME280;44750;52.040;7.472;2023-02-12T20:37:40;102518.97;;;9.67;100.00
58973;BME280;44750;52.040;7.472;2023-02-12T20:42:40;102520.38;;;9.60;100.00
58973;BME280;44750;52.040;7.472;2023-02-12T20:47:40;102523.94;;;9.61;100.00
58973;BME280;44750;52.040;7.472;2023-02-12T20:52:41;102528.16;;;9.65;100.00
58973;BME280;44750;52.040;7.472;2023-02-12T20:57:41;102511.69;;;9.55;100.00
58973;BME280;44750;52.040;7.472;2023-02-12T21:02:41;102502.56;;;9.43;100.00
58973;BME280;44750;52.040;7.472;2023-02-12T21:07:41;102524.00;;;9.46;100.00
58973;BME280;44750;52.040;7.472;2023-02-12T21:12:42;102511.09;;;9.37;100.00
58973;BME280;44750;52.040;7.472;2023-02-12T21:17:42;102517.63;;;9.33;100.00
58973;BME280;44750;52.040;7.472;2023-02-12T21:22:42;102524.41;;;9.40;100.00
58973;BME280;44750;52.040;7.472;2023-02-12T21:27:42;102526.03;;;9.43;100.00
58973;BME280;44750;52.040;7.472;2023-02-12T21:32:42;102519.94;;;9.39;100.00
58973;BME280;44750;52.040;7.472;2023-02-12T21:37:43;102518.53;;;9.33;100.00
58973;BME280;44750;52.040;7.472;2023-02-12T21:42:43;102525.97;;;9.30;100.00
58973;BME280;44750;52.040;7.472;2023-02-12T21:47:43;102533.97;;;9.31;100.00
58973;BME280;44750;52.040;7.472;2023-02-12T21:52:43;102527.81;;;9.29;100.00
58973;BME280;44750;52.040;7.472;2023-02-12T21:57:43;102524.44;;;9.26;100.00
58973;BME280;44750;52.040;7.472;2023-02-12T22:02:44;102523.69;;;9.24;100.00
58973;BME280;44750;52.040;7.472;2023-02-12T22:07:47;102539.09;;;9.22;100.00
58973;BME280;44750;52.040;7.472;2023-02-12T22:12:48;102523.69;;;9.09;100.00
58973;BME280;44750;52.040;7.472;2023-02-12T22:17:48;102535.81;;;9.16;100.00
58973;BME280;44750;52.040;7.472;2023-02-12T22:22:48;102524.34;;;9.13;100.00
58973;BME280;44750;52.040;7.472;2023-02-12T22:27:48;102514.59;;;9.10;100.00
58973;BME280;44750;52.040;7.472;2023-02-12T22:32:49;102518.28;;;9.09;100.00
58973;BME280;44750;52.040;7.472;2023-02-12T22:37:49;102529.69;;;9.14;100.00
58973;BME280;44750;52.040;7.472;2023-02-12T22:42:49;102519.03;;;9.11;100.00
58973;BME280;44750;52.040;7.472;2023-02-12T22:47:49;102516.34;;;9.11;100.00
58973;BME280;44750;52.040;7.472;2023-02-12T22:52:49;102515.50;;;9.11;100.00
58973;BME280;44750;52.040;7.472;2023-02-12T22:57:49;102521.00;;;9.09;100.00
58973;BME280;44750;52.040;7.472;2023-02-12T23:02:50;102523.59;;;9.11;100.00
58973;BME280;44750;52.040;7.472;2023-02-12T23:07:50;102511.25;;;9.07;100.00
58973;BME280;44750;52.040;7.472;2023-02-12T23:12:50;102508.19;;;8.98;100.00
58973;BME280;44750;52.040;7.472;2023-02-12T23:17:50;102514.91;;;9.06;100.00
58973;BME280;44750;52.040;7.472;2023-02-12T23:22:51;102505.28;;;9.01;100.00
58973;BME280;44750;52.040;7.472;2023-02-12T23:27:51;102504.38;;;9.01;100.00
58973;BME280;44750;52.040;7.472;2023-02-12T23:32:51;102483.19;;;8.95;100.00
58973;BME280;44750;52.040;7.472;2023-02-12T23:37:51;102491.88;;;9.00;100.00
58973;BME280;44750;52.040;7.472;2023-02-12T23:42:52;102484.63;;;8.86;100.00
58973;BME280;44750;52.040;7.472;2023-02-12T23:47:52;102501.13;;;8.96;100.00
58973;BME280;44750;52.040;7.472;2023-02-12T23:52:52;102485.41;;;8.88;100.00
58973;BME280;44750;52.040;7.472;2023-02-12T23:57:53;102489.19;;;8.85;100.00
